Time;durP1;ratioP1;P1;durP2;ratioP2;P2;SDS_P1;SDS_P2;PMS_P1;PMS_P2;Temp;Humidity;BMP_temperature;BMP_pressure;BME280_temperature;BME280_humidity;BME280_pressure;Samples;Min_cycle;Max_cycle;Signal;HPM_P1;HPM_P2
2023/10/07 00:00:51;;;;;;;9.77;5.70;;;;;;;-141.97;48.24;47522.91;5054766;28;20179;-86
2023/10/07 00:03:20;;;;;;;12.67;6.10;;;;;;;-141.97;48.76;47630.56;5072871;28;20202;-88
2023/10/07 00:05:50;;;;;;;10.73;5.80;;;;;;;-141.97;49.04;47701.69;5054627;28;20202;-87
2023/10/07 00:08:16;;;;;;;9.33;5.60;;;;;;;-141.97;49.22;47432.59;5054320;28;20192;-88
2023/10/07 00:10:46;;;;;;;10.63;5.57;;;;;;;-141.97;48.74;47534.44;5073134;28;20167;-89
2023/10/07 00:13:12;;;;;;;10.87;5.70;;;;;;;-141.97;48.54;47490.25;5054810;28;20548;-89
2023/10/07 00:15:46;;;;;;;9.43;5.60;;;;;;;-141.97;48.64;47538.28;5072986;28;20167;-89
2023/10/07 00:18:13;;;;;;;9.63;5.30;;;;;;;-141.97;48.57;47515.22;5072598;28;20157;-88
2023/10/07 00:20:50;;;;;;;9.93;5.80;;;;;;;-141.97;48.50;47522.91;5073068;28;20149;-88
2023/10/07 00:23:23;;;;;;;7.93;5.20;;;;;;;-141.97;48.67;47542.16;5072307;28;20153;-87
2023/10/07 00:25:53;;;;;;;8.53;4.83;;;;;;;-141.97;48.58;47380.69;5071808;28;20220;-88
2023/10/07 00:28:44;;;;;;;12.40;5.53;;;;;;;-141.97;48.58;47542.16;5054070;28;20589;-88
2023/10/07 00:31:12;;;;;;;8.60;5.17;;;;;;;-141.97;49.83;47503.69;5071269;28;20235;-86
2023/10/07 00:34:02;;;;;;;9.80;5.47;;;;;;;-141.97;51.01;47323.03;5073277;28;20183;-87
2023/10/07 00:39:09;;;;;;;9.27;5.43;;;;;;;-141.97;48.90;47519.06;5071892;28;20208;-89
2023/10/07 00:44:34;;;;;;;9.37;5.60;;;;;;;-141.97;48.63;47440.28;4990999;28;20195;-87
2023/10/07 00:49:33;;;;;;;9.93;5.03;;;;;;;-141.97;49.21;47538.28;4990136;28;20286;-87
2023/10/07 00:52:03;;;;;;;8.73;5.20;;;;;;;-141.97;49.86;47507.53;4989805;28;20195;-87
2023/10/07 00:54:49;;;;;;;6.87;4.93;;;;;;;-141.97;49.02;47634.41;4973667;28;20187;-87
2023/10/07 01:00:18;;;;;;;8.07;5.10;;;;;;;-141.97;50.65;47392.22;4990265;28;20186;-88
2023/10/07 01:02:45;;;;;;;6.03;4.33;;;;;;;-141.97;48.46;47549.84;4990543;28;20237;-88
2023/10/07 01:05:21;;;;;;;9.57;4.40;;;;;;;-141.97;47.65;47505.63;4990058;28;20639;-89
2023/10/07 01:07:53;;;;;;;7.20;4.50;;;;;;;-141.97;48.38;47603.66;4990337;28;20197;-87
2023/10/07 01:10:24;;;;;;;7.70;4.33;;;;;;;-141.97;47.48;47469.09;4990419;28;20175;-87
2023/10/07 01:12:51;;;;;;;7.43;4.53;;;;;;;-141.97;47.64;47686.31;4991046;28;20192;-88
2023/10/07 01:15:22;;;;;;;10.50;4.67;;;;;;;-141.97;48.04;47534.44;4990187;28;20772;-88
2023/10/07 01:17:53;;;;;;;6.43;4.20;;;;;;;-141.97;47.73;47522.91;4993448;28;20171;-88
2023/10/07 01:20:22;;;;;;;8.23;4.67;;;;;;;-141.97;48.09;47692.06;4997612;28;20194;-87
2023/10/07 01:23:03;;;;;;;6.13;3.90;;;;;;;-141.97;48.27;47534.44;5071677;28;20161;-87
2023/10/07 01:25:37;;;;;;;6.47;4.17;;;;;;;-141.97;48.38;47695.91;5071700;28;20216;-87
2023/10/07 01:28:04;;;;;;;6.93;4.20;;;;;;;-141.97;47.76;47703.59;5072294;28;20153;-87
2023/10/07 01:30:34;;;;;;;6.53;4.20;;;;;;;-141.97;47.88;47513.31;5071655;28;20157;-89
2023/10/07 01:33:16;;;;;;;8.17;4.40;;;;;;;-141.97;48.41;47469.09;5074108;28;20196;-88
2023/10/07 01:36:05;;;;;;;7.67;4.43;;;;;;;-141.97;49.68;47496.00;5081986;28;20247;-85
2023/10/07 01:38:27;;;;;;;8.93;4.67;;;;;;;-141.97;49.60;47519.06;5095754;28;20205;-87
2023/10/07 01:40:55;;;;;;;13.17;4.50;;;;;;;-141.97;48.65;47511.38;5092808;28;20153;-87
2023/10/07 01:43:21;;;;;;;7.63;4.40;;;;;;;-141.97;48.78;47676.69;5080529;28;20180;-86
2023/10/07 01:45:52;;;;;;;8.10;4.30;;;;;;;-141.97;48.80;47674.78;5072003;28;20165;-89
2023/10/07 01:48:18;;;;;;;6.57;4.13;;;;;;;-141.97;48.75;47709.38;5092282;28;20161;-89
2023/10/07 01:50:45;;;;;;;9.10;4.43;;;;;;;-141.97;49.16;47455.66;5085416;28;20699;-89
2023/10/07 01:53:11;;;;;;;6.60;4.03;;;;;;;-141.97;49.42;47553.69;5059499;28;20616;-89
2023/10/07 01:55:42;;;;;;;7.80;3.90;;;;;;;-141.97;49.30;47597.88;5058849;28;20176;-89
2023/10/07 01:58:15;;;;;;;6.20;4.00;;;;;;;-141.97;49.07;47663.22;5058071;28;20175;-89
2023/10/07 02:00:44;;;;;;;7.53;4.63;;;;;;;-141.97;49.25;47565.22;5075572;28;20157;-88
2023/10/07 02:03:13;;;;;;;8.20;4.60;;;;;;;-141.97;49.81;47519.06;5075365;28;20157;-88
2023/10/07 02:05:48;;;;;;;6.07;3.83;;;;;;;-141.97;49.28;47465.25;5075385;28;20562;-88
2023/10/07 02:08:32;;;;;;;7.33;4.20;;;;;;;-141.97;49.24;47547.91;5074699;28;20524;-89
2023/10/07 02:10:58;;;;;;;5.37;3.60;;;;;;;-141.97;48.96;47403.75;5074303;28;20282;-88
2023/10/07 02:13:27;;;;;;;6.03;4.10;;;;;;;-141.97;48.99;47499.84;5074653;28;20738;-87
2023/10/07 02:15:53;;;;;;;5.77;3.87;;;;;;;-141.97;49.29;47547.91;5074412;28;20177;-86
2023/10/07 02:18:19;;;;;;;7.50;3.83;;;;;;;-141.97;49.45;47665.16;5056084;28;20189;-86
2023/10/07 02:21:10;;;;;;;8.90;4.20;;;;;;;-141.97;49.72;47549.84;5073822;28;20198;-86
2023/10/07 02:26:01;;;;;;;5.83;3.80;;;;;;;-141.97;49.93;47622.88;5074006;28;20220;-87
2023/10/07 02:28:33;;;;;;;7.50;4.17;;;;;;;-141.97;50.04;47526.75;5074422;28;20196;-88
2023/10/07 02:31:01;;;;;;;7.27;4.10;;;;;;;-141.97;49.80;47678.63;5074253;28;20192;-87
2023/10/07 02:33:41;;;;;;;8.53;4.13;;;;;;;-141.97;49.63;47542.16;5074199;28;20219;-88
2023/10/07 02:36:10;;;;;;;6.67;4.37;;;;;;;-141.97;49.35;47521.00;5074273;28;20628;-88
2023/10/07 02:38:41;;;;;;;8.63;4.50;;;;;;;-141.97;49.63;47563.28;5055874;28;20671;-87
2023/10/07 02:41:16;;;;;;;9.67;4.63;;;;;;;-141.97;49.42;47582.50;5073857;28;20595;-86
2023/10/07 02:43:48;;;;;;;8.33;4.33;;;;;;;-141.97;49.42;47563.28;5072644;28;20585;-85
2023/10/07 02:46:27;;;;;;;10.60;4.23;;;;;;;-141.97;49.58;47582.50;5055903;28;20210;-86
2023/10/07 02:49:01;;;;;;;8.07;4.30;;;;;;;-141.97;49.69;47538.28;5073899;28;20218;-88
2023/10/07 02:51:27;;;;;;;8.83;4.40;;;;;;;-141.97;50.15;47553.69;5056168;28;20168;-85
2023/10/07 02:53:59;;;;;;;6.23;4.17;;;;;;;-141.97;51.29;47496.00;5073398;28;20625;-86
2023/10/07 02:56:28;;;;;;;7.97;4.50;;;;;;;-141.97;51.76;47551.75;5073993;28;20153;-86
2023/10/07 02:59:00;;;;;;;9.83;4.57;;;;;;;-141.97;51.76;47357.63;5073843;28;20206;-84
2023/10/07 03:01:26;;;;;;;7.77;4.70;;;;;;;-141.97;53.00;47565.22;5073631;28;20617;-87
2023/10/07 03:03:54;;;;;;;8.67;4.90;;;;;;;-141.97;53.03;47490.25;5073369;28;20165;-87
2023/10/07 03:06:22;;;;;;;9.03;4.77;;;;;;;-141.97;53.23;47549.84;5059241;28;20165;-88
2023/10/07 03:09:00;;;;;;;7.40;4.60;;;;;;;-141.97;52.57;47446.03;5060409;28;20180;-87
2023/10/07 03:11:48;;;;;;;6.63;4.70;;;;;;;-141.97;52.37;47424.91;5078871;28;20163;-88
2023/10/07 03:14:23;;;;;;;10.03;4.77;;;;;;;-141.97;52.41;47434.50;5073289;28;20244;-87
2023/10/07 03:16:59;;;;;;;7.73;5.03;;;;;;;-141.97;52.08;47411.44;5074404;28;20529;-88
2023/10/07 03:19:33;;;;;;;9.43;4.93;;;;;;;-141.97;51.94;47672.84;5074775;28;20572;-88
2023/10/07 03:22:09;;;;;;;7.60;4.60;;;;;;;-141.97;52.20;47561.38;5073802;28;20547;-88
2023/10/07 03:24:41;;;;;;;8.80;4.73;;;;;;;-141.97;52.77;47619.03;5080836;28;20219;-88
2023/10/07 03:27:11;;;;;;;8.90;4.47;;;;;;;-141.97;52.86;47663.22;5064228;28;20226;-87
2023/10/07 03:29:37;;;;;;;14.63;5.20;;;;;;;-141.97;53.27;47569.06;5072972;28;20247;-87
2023/10/07 03:32:12;;;;;;;9.00;5.30;;;;;;;-141.97;53.10;47432.59;5071739;28;20269;-87
2023/10/07 03:34:45;;;;;;;8.27;4.30;;;;;;;-141.97;52.92;47657.47;5072725;28;20200;-87
2023/10/07 03:42:40;;;;;;;8.90;4.67;;;;;;;-141.97;53.68;47534.44;5032096;28;20166;-86
2023/10/07 03:45:06;;;;;;;9.73;4.67;;;;;;;-141.97;53.44;47540.22;5030619;28;20177;-86
2023/10/07 03:47:32;;;;;;;10.30;5.37;;;;;;;-141.97;54.21;47561.38;5044424;28;20186;-85
2023/10/07 03:49:58;;;;;;;11.03;5.70;;;;;;;-141.97;54.36;47449.88;5054593;28;20178;-85
2023/10/07 03:52:27;;;;;;;8.50;4.93;;;;;;;-141.97;54.22;47465.25;5049936;28;20205;-86
2023/10/07 03:54:54;;;;;;;8.83;5.10;;;;;;;-141.97;54.71;47578.66;5028911;28;20289;-87
2023/10/07 03:57:19;;;;;;;8.37;5.10;;;;;;;-141.97;55.00;47536.38;5033362;28;20269;-87
2023/10/07 03:59:45;;;;;;;10.90;5.00;;;;;;;-141.97;55.58;47467.19;5030246;28;20277;-87
2023/10/07 04:02:34;;;;;;;14.37;5.77;;;;;;;-141.97;54.90;47642.09;5030322;28;20166;-87
2023/10/07 04:05:10;;;;;;;13.17;6.10;;;;;;;-141.97;54.91;47434.50;5030444;28;20183;-88
2023/10/07 04:07:37;;;;;;;11.17;5.67;;;;;;;-141.97;55.13;47497.94;5032289;28;20590;-86
2023/10/07 04:10:13;;;;;;;10.20;5.63;;;;;;;-141.97;55.70;47546.00;5049153;28;20174;-87
2023/10/07 04:12:39;;;;;;;13.37;5.97;;;;;;;-141.97;55.96;47551.75;5041229;28;20648;-87
2023/10/07 04:15:10;;;;;;;12.37;6.17;;;;;;;-141.97;55.85;47380.69;5054912;28;20196;-87
2023/10/07 04:17:38;;;;;;;12.17;6.07;;;;;;;-141.97;55.72;47515.22;5072996;28;20153;-86
2023/10/07 04:20:18;;;;;;;11.83;5.60;;;;;;;-141.97;55.75;47580.59;5073006;28;20169;-86
2023/10/07 04:23:00;;;;;;;10.60;5.50;;;;;;;-141.97;56.51;47557.53;5072323;28;20156;-86
2023/10/07 04:25:27;;;;;;;14.37;6.07;;;;;;;-141.97;56.83;47507.53;5071544;28;20253;-86
2023/10/07 04:27:55;;;;;;;10.07;5.83;;;;;;;-141.97;56.44;47507.53;5071436;28;20160;-86
2023/10/07 04:30:25;;;;;;;20.33;6.90;;;;;;;-141.97;56.81;47553.69;5071710;28;20171;-86
2023/10/07 04:32:53;;;;;;;9.90;5.73;;;;;;;-141.97;56.88;47615.19;5071722;28;20192;-86
2023/10/07 04:35:26;;;;;;;17.97;9.07;;;;;;;-141.97;56.33;47697.84;5071329;28;20291;-86
2023/10/07 04:37:54;;;;;;;19.27;8.77;;;;;;;-141.97;56.16;47561.38;5071578;28;20214;-86
2023/10/07 04:45:37;;;;;;;85.73;54.90;;;;;;;-141.97;56.50;47542.16;5071326;28;20631;-86
2023/10/07 04:48:24;;;;;;;53.13;33.97;;;;;;;-141.97;57.24;47519.06;5071299;28;20318;-87
2023/10/07 04:51:04;;;;;;;20.60;10.27;;;;;;;-141.97;57.89;47542.16;5053278;28;20616;-87
2023/10/07 04:53:39;;;;;;;14.20;7.27;;;;;;;-141.97;58.91;47661.31;5071378;28;20184;-86
2023/10/07 04:56:10;;;;;;;26.37;7.77;;;;;;;-141.97;59.41;47565.22;5053374;28;20168;-86
2023/10/07 04:58:39;;;;;;;13.73;7.00;;;;;;;-141.97;59.86;47553.69;5072260;28;20616;-86
2023/10/07 05:01:22;;;;;;;15.40;8.10;;;;;;;-141.97;59.75;47509.47;5072209;28;20161;-86
2023/10/07 05:03:51;;;;;;;18.30;9.50;;;;;;;-141.97;60.42;47521.00;5071961;28;20153;-86
2023/10/07 05:06:18;;;;;;;14.70;8.10;;;;;;;-141.97;60.32;47565.22;5070604;28;20180;-87
2023/10/07 05:08:45;;;;;;;15.53;8.70;;;;;;;-141.97;60.14;47380.69;5071733;28;20164;-87
2023/10/07 05:11:16;;;;;;;15.20;9.20;;;;;;;-141.97;60.13;47507.53;5053324;28;20259;-88
2023/10/07 05:13:44;;;;;;;17.10;10.47;;;;;;;-141.97;60.08;47688.22;5071370;28;20172;-87
2023/10/07 05:16:10;;;;;;;15.67;9.10;;;;;;;-141.97;59.65;47582.50;5071750;28;20171;-87
2023/10/07 05:18:36;;;;;;;17.17;7.80;;;;;;;-141.97;59.56;47484.47;5053426;28;20625;-86
2023/10/07 05:21:01;;;;;;;13.80;7.60;;;;;;;-141.97;60.21;47651.69;5072275;28;20257;-87
2023/10/07 05:23:27;;;;;;;16.10;7.40;;;;;;;-141.97;60.73;47570.97;5071127;28;20161;-87
2023/10/07 05:25:53;;;;;;;15.67;7.47;;;;;;;-141.97;60.75;47574.81;5070685;28;20247;-86
2023/10/07 05:28:22;;;;;;;13.67;7.03;;;;;;;-141.97;60.47;47384.53;5060461;28;20224;-87
2023/10/07 05:30:51;;;;;;;19.03;7.13;;;;;;;-141.97;60.35;47557.53;5032817;28;20246;-87
2023/10/07 05:33:25;;;;;;;16.57;7.67;;;;;;;-141.97;59.94;47396.06;5050906;28;20512;-86
2023/10/07 05:36:13;;;;;;;21.63;8.23;;;;;;;-141.97;59.87;47555.59;5050970;28;20617;-87
2023/10/07 05:38:48;;;;;;;20.60;8.30;;;;;;;-141.97;59.37;47565.22;5049673;28;20172;-87
2023/10/07 05:41:14;;;;;;;14.97;7.07;;;;;;;-141.97;59.34;47584.44;5051232;28;20172;-87
2023/10/07 05:43:43;;;;;;;12.20;6.37;;;;;;;-141.97;59.59;47547.91;5050767;28;20272;-87
2023/10/07 05:46:12;;;;;;;19.37;6.70;;;;;;;-141.97;59.96;47572.91;5050797;28;20276;-87
2023/10/07 05:48:38;;;;;;;18.70;7.57;;;;;;;-141.97;59.57;47570.97;5049154;28;20242;-87
2023/10/07 05:51:11;;;;;;;13.70;7.17;;;;;;;-141.97;59.21;47505.63;5050275;28;20305;-86
2023/10/07 05:53:38;;;;;;;12.37;7.30;;;;;;;-141.97;59.31;47590.19;5050167;28;20382;-86
2023/10/07 05:56:07;;;;;;;14.83;7.20;;;;;;;-141.97;59.17;47461.41;5050549;28;20166;-86
2023/10/07 05:58:43;;;;;;;14.47;6.97;;;;;;;-141.97;58.58;47592.13;5066050;28;20186;-86
2023/10/07 06:01:11;;;;;;;11.80;7.37;;;;;;;-141.97;58.74;47695.91;5070491;28;20244;-87
2023/10/07 06:03:37;;;;;;;14.50;7.57;;;;;;;-141.97;57.87;47549.84;5067162;28;20162;-87
2023/10/07 06:06:04;;;;;;;14.20;7.93;;;;;;;-141.97;57.40;47534.44;5065310;28;20169;-87
2023/10/07 06:08:32;;;;;;;17.80;7.40;;;;;;;-141.97;57.97;47572.91;5052295;28;20157;-86
2023/10/07 06:10:59;;;;;;;12.50;6.90;;;;;;;-141.97;57.76;47574.81;5049632;28;20554;-87
2023/10/07 06:13:29;;;;;;;16.20;6.53;;;;;;;-141.97;57.96;47617.09;5051104;28;20186;-88
2023/10/07 06:15:59;;;;;;;12.13;6.30;;;;;;;-141.97;57.43;47486.41;5050877;28;20596;-87
2023/10/07 06:18:26;;;;;;;11.10;5.97;;;;;;;-141.97;57.17;47676.69;5035444;28;20197;-87
2023/10/07 06:20:52;;;;;;;12.27;6.70;;;;;;;-141.97;55.72;47515.22;5055463;28;20541;-87
2023/10/07 06:23:25;;;;;;;12.17;6.00;;;;;;;-141.97;54.87;47474.88;5036642;28;20222;-87
2023/10/07 06:25:51;;;;;;;9.63;5.47;;;;;;;-141.97;54.62;47449.88;5054931;28;20228;-87
2023/10/07 06:28:25;;;;;;;12.73;5.40;;;;;;;-141.97;54.03;47580.59;5059359;28;20168;-86
2023/10/07 06:30:51;;;;;;;11.80;5.93;;;;;;;-141.97;53.84;47572.91;5051218;28;20170;-87
2023/10/07 06:33:19;;;;;;;11.17;5.43;;;;;;;-141.97;53.64;47434.50;5058254;28;20196;-87
2023/10/07 06:35:44;;;;;;;13.50;5.63;;;;;;;-141.97;52.23;47549.84;5054120;28;20157;-88
2023/10/07 06:38:11;;;;;;;9.93;5.43;;;;;;;-141.97;52.11;47480.63;5035585;28;20556;-88
2023/10/07 06:40:36;;;;;;;9.83;5.77;;;;;;;-141.97;51.97;47449.88;5036496;28;20176;-88
2023/10/07 06:43:02;;;;;;;11.17;6.07;;;;;;;-141.97;51.54;47396.06;5053695;28;20632;-88
2023/10/07 06:45:35;;;;;;;10.73;6.57;;;;;;;-141.97;51.62;47542.16;5053735;28;20186;-88
2023/10/07 06:48:09;;;;;;;12.43;7.10;;;;;;;-141.97;51.86;47738.19;5053643;28;20232;-87
2023/10/07 06:50:35;;;;;;;16.10;6.87;;;;;;;-141.97;51.41;47561.38;5035416;28;20174;-87
2023/10/07 06:53:01;;;;;;;12.13;7.67;;;;;;;-141.97;49.92;47563.28;5053445;28;20193;-88
2023/10/07 06:55:35;;;;;;;14.33;7.50;;;;;;;-141.97;49.09;47559.44;5035514;28;20177;-88
2023/10/07 06:58:03;;;;;;;18.27;8.03;;;;;;;-141.97;48.58;47497.94;5053205;28;20153;-87
2023/10/07 07:00:46;;;;;;;17.63;9.50;;;;;;;-141.97;47.78;47647.84;5053569;28;20166;-89
2023/10/07 07:03:13;;;;;;;18.13;10.43;;;;;;;-141.97;46.82;47538.28;5053225;28;20698;-88
2023/10/07 07:05:40;;;;;;;16.67;8.67;;;;;;;-141.97;45.98;47649.78;5054961;28;20185;-89
2023/10/07 07:08:09;;;;;;;9.40;6.30;;;;;;;-141.97;46.50;47540.22;5054507;28;20241;-87
2023/10/07 07:10:35;;;;;;;16.87;6.43;;;;;;;-141.97;46.39;47478.72;5053560;28;20181;-87
2023/10/07 07:13:18;;;;;;;8.60;6.50;;;;;;;-141.97;46.39;47630.56;5034929;28;20205;-88
2023/10/07 07:15:57;;;;;;;10.80;6.30;;;;;;;-141.97;45.32;47496.00;5052788;28;20166;-87
2023/10/07 07:18:25;;;;;;;10.83;6.30;;;;;;;-141.97;45.54;47546.00;5035175;28;20637;-87
2023/10/07 07:23:24;;;;;;;16.47;8.03;;;;;;;-141.97;43.99;47549.84;5053590;28;20675;-89
2023/10/07 07:26:06;;;;;;;14.77;7.33;;;;;;;-141.97;43.09;47447.97;5051200;28;20703;-89
2023/10/07 07:28:32;;;;;;;15.05;6.40;;;;;;;-141.97;43.04;47471.03;5054206;28;20428;-91
2023/10/07 07:31:02;;;;;;;12.17;7.40;;;;;;;-141.97;43.19;47674.78;5054746;28;20527;-89
2023/10/07 07:33:37;;;;;;;11.10;6.53;;;;;;;-141.97;42.71;47511.38;5056141;28;20261;-91
2023/10/07 07:36:18;;;;;;;17.83;10.20;;;;;;;-141.97;42.04;47396.06;5056282;28;20169;-89
2023/10/07 07:38:44;;;;;;;12.13;7.23;;;;;;;-141.97;42.15;47419.13;5057882;28;20165;-90
2023/10/07 07:41:26;;;;;;;12.53;7.17;;;;;;;-141.97;42.46;47497.94;5083172;28;20164;-88
2023/10/07 07:43:53;;;;;;;19.43;10.37;;;;;;;-141.97;41.75;47426.81;5065537;28;20187;-89
2023/10/07 07:46:26;;;;;;;14.13;9.13;;;;;;;-141.97;41.24;47499.84;5087353;28;20157;-89
2023/10/07 07:49:06;;;;;;;16.60;10.77;;;;;;;-141.97;41.07;47519.06;5063864;28;20544;-88
2023/10/07 07:51:43;;;;;;;17.93;11.00;;;;;;;-141.97;40.52;47461.41;5067002;28;20176;-91
2023/10/07 07:54:10;;;;;;;28.93;19.00;;;;;;;-141.97;40.28;47496.00;5064493;28;20164;-88
2023/10/07 07:56:36;;;;;;;17.40;11.03;;;;;;;-141.97;40.15;47451.81;5059052;28;20203;-88
2023/10/07 07:59:13;;;;;;;18.03;11.10;;;;;;;-141.97;40.14;47521.00;5060496;28;20172;-87
2023/10/07 08:01:45;;;;;;;21.83;13.00;;;;;;;-141.97;40.50;47436.44;5078474;28;20153;-86
2023/10/07 08:09:58;;;;;;;17.33;11.50;;;;;;;-141.97;38.78;47582.50;4972207;29;20218;-86
2023/10/07 08:12:29;;;;;;;23.67;12.73;;;;;;;-141.97;38.55;47447.97;4967643;29;20219;-89
2023/10/07 08:14:58;;;;;;;19.47;12.37;;;;;;;-141.97;38.44;47517.16;4956360;29;20196;-87
2023/10/07 08:17:29;;;;;;;19.27;12.10;;;;;;;-141.97;38.96;47442.19;4960302;29;20188;-89
2023/10/07 08:19:57;;;;;;;12.67;7.77;;;;;;;-141.97;38.41;47313.44;4937790;29;20188;-90
2023/10/07 08:22:23;;;;;;;13.10;8.30;;;;;;;-141.97;38.19;47622.88;4953605;29;20182;-90
2023/10/07 08:24:49;;;;;;;8.27;5.13;;;;;;;-141.97;38.29;47413.38;4937667;29;20225;-89
2023/10/07 08:30:06;;;;;;;9.73;5.70;;;;;;;-141.97;37.98;47507.53;4954397;29;20575;-89
2023/10/07 08:32:41;;;;;;;11.37;5.27;;;;;;;-141.97;37.80;47557.53;4952645;29;20196;-90
2023/10/07 08:35:18;;;;;;;12.13;5.87;;;;;;;-141.97;37.35;47599.81;4939435;29;20687;-90
2023/10/07 08:37:47;;;;;;;10.73;6.97;;;;;;;-141.97;36.97;47461.41;4953579;29;20716;-89
2023/10/07 08:40:26;;;;;;;12.63;7.50;;;;;;;-141.97;36.65;47319.19;4937648;29;20307;-89
2023/10/07 08:43:00;;;;;;;11.30;6.93;;;;;;;-141.97;36.81;47430.66;4955942;28;20228;-89
2023/10/07 08:45:30;;;;;;;11.33;6.40;;;;;;;-141.97;36.58;47421.06;4977255;28;20206;-88
2023/10/07 08:48:15;;;;;;;12.17;7.00;;;;;;;-141.97;36.04;47655.53;5087611;28;20161;-88
2023/10/07 08:50:58;;;;;;;10.93;6.20;;;;;;;-141.97;36.44;47269.22;5077583;28;20180;-90
2023/10/07 08:53:25;;;;;;;10.87;6.10;;;;;;;-141.97;35.01;47484.47;5065551;28;20192;-89
2023/10/07 08:55:57;;;;;;;9.50;5.73;;;;;;;-141.97;35.09;47474.88;5064439;28;20169;-88
2023/10/07 08:58:31;;;;;;;10.00;6.03;;;;;;;-141.97;35.79;47492.16;5064409;28;20176;-88
2023/10/07 09:00:58;;;;;;;10.43;5.60;;;;;;;-141.97;35.20;47446.03;5081204;28;20243;-90
2023/10/07 09:03:28;;;;;;;11.23;6.33;;;;;;;-141.97;34.10;47469.09;5071527;28;20167;-89
2023/10/07 09:05:59;;;;;;;10.40;6.00;;;;;;;-141.97;34.27;47353.78;5063540;28;20168;-89
2023/10/07 09:08:25;;;;;;;14.53;6.23;;;;;;;-141.97;34.15;47407.59;5054598;28;20275;-89
2023/10/07 09:10:52;;;;;;;9.67;5.70;;;;;;;-141.97;34.40;47369.16;5072853;28;20184;-88
2023/10/07 09:13:38;;;;;;;8.63;5.57;;;;;;;-141.97;33.78;47463.34;5077443;28;20196;-89
2023/10/07 09:16:07;;;;;;;10.30;6.07;;;;;;;-141.97;33.89;47449.88;5058251;28;20164;-89
2023/10/07 09:18:42;;;;;;;7.87;5.17;;;;;;;-141.97;34.27;47349.94;5082457;28;20184;-88
2023/10/07 09:21:09;;;;;;;11.00;5.50;;;;;;;-141.97;34.76;47472.94;5077928;28;20238;-89
2023/10/07 09:23:43;;;;;;;9.30;5.40;;;;;;;-141.97;34.33;47609.41;5074753;28;20240;-90
2023/10/07 09:26:22;;;;;;;9.77;5.60;;;;;;;-141.97;33.39;47194.28;5075150;28;20715;-90
2023/10/07 09:29:14;;;;;;;8.23;5.27;;;;;;;-141.97;32.75;47440.28;5057909;28;20176;-91
2023/10/07 09:31:56;;;;;;;10.87;6.07;;;;;;;-141.97;32.80;47428.75;5059295;28;20234;-90
2023/10/07 09:34:41;;;;;;;9.57;5.90;;;;;;;-141.97;32.43;47665.16;5058075;28;20222;-88
2023/10/07 09:37:13;;;;;;;9.93;6.20;;;;;;;-141.97;31.84;47551.75;5053993;28;20540;-89
2023/10/07 09:39:46;;;;;;;10.73;5.73;;;;;;;-141.97;32.68;47597.88;5053884;28;20615;-88
2023/10/07 09:45:27;;;;;;;9.33;5.90;;;;;;;-141.97;33.68;47361.47;5073505;28;20184;-90
2023/10/07 09:47:46;;;;;;;10.63;6.23;;;;;;;-141.97;33.24;47353.78;5071839;28;20263;-90
2023/10/07 09:50:33;;;;;;;9.00;5.53;;;;;;;-141.97;33.14;47457.56;5071784;28;20161;-90
2023/10/07 09:53:30;;;;;;;8.50;5.60;;;;;;;-141.97;32.46;47417.22;5071868;28;20201;-90
2023/10/07 09:56:29;;;;;;;9.65;5.82;;;;;;;-141.97;32.62;47469.09;5059315;28;20153;-89
2023/10/07 09:59:07;;;;;;;8.75;5.63;;;;;;;-141.97;31.88;47396.06;5086481;28;20153;-90
2023/10/07 10:01:40;;;;;;;8.43;5.43;;;;;;;-141.97;31.62;47365.31;5057380;28;20192;-90
2023/10/07 10:04:11;;;;;;;9.15;6.20;;;;;;;-141.97;31.62;47461.41;5057113;28;20762;-90
2023/10/07 10:07:07;;;;;;;9.77;6.57;;;;;;;-141.97;31.67;47411.44;5075399;28;20543;-89
2023/10/07 10:10:04;;;;;;;15.18;6.47;;;;;;;-141.97;31.94;47430.66;5058264;28;20535;-90
2023/10/07 10:13:07;;;;;;;10.48;6.28;;;;;;;-141.97;31.54;47403.75;5077018;28;20236;-89
2023/10/07 10:18:31;;;;;;;9.18;5.88;;;;;;;-141.97;30.95;47401.84;5088368;28;20154;-88
2023/10/07 10:21:09;;;;;;;12.82;5.63;;;;;;;-141.97;31.01;47378.78;5094120;28;20179;-88
2023/10/07 10:23:37;;;;;;;11.88;6.07;;;;;;;-141.97;31.23;47215.41;5088587;28;20177;-90
2023/10/07 10:26:20;;;;;;;7.85;5.75;;;;;;;-141.97;31.41;47298.06;5075356;28;20239;-89
2023/10/07 10:29:07;;;;;;;8.00;5.95;;;;;;;-141.97;31.28;47411.44;5060369;28;20295;-90
2023/10/07 10:31:40;;;;;;;9.02;6.03;;;;;;;-141.97;31.50;47436.44;5076517;28;20641;-90
2023/10/07 10:34:08;;;;;;;11.35;6.35;;;;;;;-141.97;31.00;47159.69;5058727;28;20176;-90
2023/10/07 10:36:43;;;;;;;9.80;6.25;;;;;;;-141.97;30.83;47461.41;5058473;28;20572;-90
2023/10/07 10:39:26;;;;;;;11.20;6.25;;;;;;;-141.97;30.50;47355.72;5059420;28;20390;-90
2023/10/07 10:41:56;;;;;;;11.70;6.30;;;;;;;-141.97;31.34;47398.00;5059565;28;20168;-89
2023/10/07 10:44:21;;;;;;;9.07;6.20;;;;;;;-141.97;31.44;47284.59;5059941;28;20181;-89
2023/10/07 10:46:49;;;;;;;12.30;6.68;;;;;;;-141.97;31.02;47346.09;5057275;28;20172;-90
2023/10/07 10:49:16;;;;;;;7.95;6.15;;;;;;;-141.97;31.22;47417.22;5061446;28;20170;-91
2023/10/07 10:51:54;;;;;;;7.15;6.00;;;;;;;-141.97;30.98;47611.34;5074905;28;20536;-89
2023/10/07 10:54:23;;;;;;;9.02;6.30;;;;;;;-141.97;31.28;47355.72;5057742;28;20667;-89
2023/10/07 10:57:00;;;;;;;9.07;6.35;;;;;;;-141.97;31.24;47407.59;5074851;28;20175;-88
2023/10/07 10:59:48;;;;;;;14.48;7.20;;;;;;;-141.97;31.00;47601.72;5073962;28;20162;-89
2023/10/07 11:02:20;;;;;;;8.40;6.50;;;;;;;-141.97;30.86;47428.75;5059751;28;20203;-88
2023/10/07 11:04:48;;;;;;;13.32;6.13;;;;;;;-141.97;30.41;47415.28;5075152;28;20164;-89
2023/10/07 11:07:14;;;;;;;7.60;5.68;;;;;;;-141.97;30.26;47544.06;5074532;28;20157;-89
2023/10/07 11:09:41;;;;;;;8.20;5.60;;;;;;;-141.97;30.17;47326.88;5058359;28;20258;-89
2023/10/07 11:12:12;;;;;;;12.52;6.43;;;;;;;-141.97;30.43;47328.81;5077275;28;20203;-90
2023/10/07 11:14:40;;;;;;;8.60;6.07;;;;;;;-141.97;30.69;47278.84;5086384;28;20187;-88
2023/10/07 11:17:08;;;;;;;11.10;5.97;;;;;;;-141.97;30.54;47555.59;5079268;28;20161;-89
2023/10/07 11:19:40;;;;;;;8.57;5.43;;;;;;;-141.97;30.42;47509.47;5058374;28;20167;-90
2023/10/07 11:22:07;;;;;;;7.63;4.95;;;;;;;-141.97;30.69;47594.03;5057690;28;20158;-90
2023/10/07 11:24:35;;;;;;;8.73;5.07;;;;;;;-141.97;29.81;47553.69;5056128;28;20221;-89
2023/10/07 11:27:02;;;;;;;9.50;5.40;;;;;;;-141.97;30.01;47465.25;5054427;28;20176;-90
2023/10/07 11:29:32;;;;;;;8.98;5.80;;;;;;;-141.97;30.48;47430.66;5052155;28;20596;-90
2023/10/07 11:32:03;;;;;;;9.50;5.63;;;;;;;-141.97;30.43;47273.06;5052214;28;20655;-89
2023/10/07 11:34:36;;;;;;;8.05;5.25;;;;;;;-141.97;30.71;47430.66;5053651;28;20191;-88
2023/10/07 11:37:22;;;;;;;8.90;5.55;;;;;;;-141.97;30.41;47592.13;5052670;28;20226;-89
2023/10/07 11:39:48;;;;;;;8.07;5.15;;;;;;;-141.97;30.27;47440.28;5078027;28;20158;-90
2023/10/07 11:42:20;;;;;;;8.63;5.53;;;;;;;-141.97;30.22;47549.84;5055967;28;20160;-91
2023/10/07 11:44:54;;;;;;;9.00;5.40;;;;;;;-141.97;30.09;47455.66;5053699;28;20207;-90
2023/10/07 11:47:20;;;;;;;7.30;5.50;;;;;;;-141.97;29.91;47415.28;5059874;28;20223;-87
2023/10/07 11:49:46;;;;;;;9.85;7.32;;;;;;;-141.97;29.45;47309.59;5061397;28;20165;-87
2023/10/07 11:52:13;;;;;;;8.27;5.63;;;;;;;-141.97;29.10;47230.78;5058507;28;20183;-90
2023/10/07 11:54:39;;;;;;;7.55;5.03;;;;;;;-141.97;29.53;47373.00;5077074;28;20162;-88
2023/10/07 11:57:06;;;;;;;7.75;5.35;;;;;;;-141.97;29.38;47373.00;5064834;28;20162;-88
2023/10/07 11:59:36;;;;;;;8.48;5.20;;;;;;;-141.97;29.03;47396.06;5052492;28;20169;-89
2023/10/07 12:02:09;;;;;;;7.68;5.18;;;;;;;-141.97;28.67;47426.81;5065044;28;20165;-88
2023/10/07 12:04:39;;;;;;;6.07;5.00;;;;;;;-141.97;28.46;47348.03;5059507;28;20161;-89
2023/10/07 12:07:14;;;;;;;7.82;4.75;;;;;;;-141.97;28.17;47378.78;5054112;28;20167;-89
2023/10/07 12:09:39;;;;;;;8.43;6.03;;;;;;;-141.97;28.01;47311.50;5053121;28;20171;-90
2023/10/07 12:12:08;;;;;;;7.65;5.18;;;;;;;-141.97;27.35;47238.47;5051735;28;20546;-89
2023/10/07 12:14:33;;;;;;;7.90;5.25;;;;;;;-141.97;27.60;47255.78;5053059;28;20161;-90